sensor_id;sensor_type;location;lat;lon;timestamp;P1;durP1;ratioP1;P2;durP2;ratioP2
42886;SDS011;29032;56.028;92.904;2023-05-07T00:02:48;26.80;;;18.30;;
42886;SDS011;29032;56.028;92.904;2023-05-07T00:07:50;27.77;;;18.20;;
42886;SDS011;29032;56.028;92.904;2023-05-07T00:12:52;24.37;;;17.97;;
42886;SDS011;29032;56.028;92.904;2023-05-07T00:17:55;23.60;;;15.83;;
42886;SDS011;29032;56.028;92.904;2023-05-07T00:23:16;26.57;;;16.97;;
42886;SDS011;29032;56.028;92.904;2023-05-07T00:28:18;27.07;;;17.43;;
42886;SDS011;29032;56.028;92.904;2023-05-07T00:33:21;20.93;;;14.53;;
42886;SDS011;29032;56.028;92.904;2023-05-07T00:44:02;17.47;;;13.00;;
42886;SDS011;29032;56.028;92.904;2023-05-07T00:49:05;14.87;;;10.93;;
42886;SDS011;29032;56.028;92.904;2023-05-07T00:54:26;17.23;;;10.63;;
42886;SDS011;29032;56.028;92.904;2023-05-07T00:59:28;15.27;;;11.07;;
42886;SDS011;29032;56.028;92.904;2023-05-07T01:04:50;17.60;;;9.57;;
42886;SDS011;29032;56.028;92.904;2023-05-07T01:09:52;11.43;;;8.13;;
42886;SDS011;29032;56.028;92.904;2023-05-07T01:14:55;9.70;;;7.63;;
42886;SDS011;29032;56.028;92.904;2023-05-07T01:19:59;9.93;;;5.90;;
42886;SDS011;29032;56.028;92.904;2023-05-07T01:25:02;8.67;;;6.70;;
42886;SDS011;29032;56.028;92.904;2023-05-07T01:30:07;8.03;;;6.07;;
42886;SDS011;29032;56.028;92.904;2023-05-07T01:35:10;10.77;;;6.57;;
42886;SDS011;29032;56.028;92.904;2023-05-07T01:40:16;11.23;;;8.03;;
42886;SDS011;29032;56.028;92.904;2023-05-07T01:45:36;12.40;;;8.67;;
42886;SDS011;29032;56.028;92.904;2023-05-07T01:50:39;11.33;;;6.77;;
42886;SDS011;29032;56.028;92.904;2023-05-07T02:01:23;11.73;;;6.77;;
42886;SDS011;29032;56.028;92.904;2023-05-07T02:06:25;12.23;;;7.20;;
42886;SDS011;29032;56.028;92.904;2023-05-07T02:11:33;7.85;;;6.80;;
42886;SDS011;29032;56.028;92.904;2023-05-07T02:16:36;12.80;;;7.20;;
42886;SDS011;29032;56.028;92.904;2023-05-07T02:21:38;11.77;;;7.87;;
42886;SDS011;29032;56.028;92.904;2023-05-07T02:32:15;9.83;;;6.20;;
42886;SDS011;29032;56.028;92.904;2023-05-07T02:37:17;10.77;;;7.63;;
42886;SDS011;29032;56.028;92.904;2023-05-07T02:42:21;8.90;;;6.17;;
42886;SDS011;29032;56.028;92.904;2023-05-07T02:47:41;12.37;;;7.20;;
42886;SDS011;29032;56.028;92.904;2023-05-07T02:52:43;8.03;;;5.60;;
42886;SDS011;29032;56.028;92.904;2023-05-07T02:57:47;6.70;;;4.97;;
42886;SDS011;29032;56.028;92.904;2023-05-07T03:02:49;6.03;;;4.63;;
42886;SDS011;29032;56.028;92.904;2023-05-07T03:13:13;11.97;;;4.93;;
42886;SDS011;29032;56.028;92.904;2023-05-07T03:18:16;6.20;;;4.13;;
42886;SDS011;29032;56.028;92.904;2023-05-07T03:23:18;4.77;;;4.20;;
42886;SDS011;29032;56.028;92.904;2023-05-07T03:28:21;6.93;;;4.00;;
42886;SDS011;29032;56.028;92.904;2023-05-07T03:38:53;6.07;;;4.40;;
42886;SDS011;29032;56.028;92.904;2023-05-07T03:44:00;6.25;;;4.82;;
42886;SDS011;29032;56.028;92.904;2023-05-07T03:49:02;6.53;;;4.80;;
42886;SDS011;29032;56.028;92.904;2023-05-07T03:59:27;6.47;;;5.00;;
42886;SDS011;29032;56.028;92.904;2023-05-07T04:04:29;11.37;;;5.97;;
42886;SDS011;29032;56.028;92.904;2023-05-07T04:10:08;7.30;;;5.53;;
42886;SDS011;29032;56.028;92.904;2023-05-07T04:15:14;6.73;;;5.10;;
42886;SDS011;29032;56.028;92.904;2023-05-07T04:20:16;6.60;;;5.00;;
42886;SDS011;29032;56.028;92.904;2023-05-07T04:25:22;12.48;;;5.03;;
42886;SDS011;29032;56.028;92.904;2023-05-07T04:30:26;11.63;;;5.80;;
42886;SDS011;29032;56.028;92.904;2023-05-07T04:35:47;7.40;;;4.97;;
42886;SDS011;29032;56.028;92.904;2023-05-07T04:40:50;6.73;;;4.77;;
42886;SDS011;29032;56.028;92.904;2023-05-07T04:45:57;6.80;;;4.95;;
42886;SDS011;29032;56.028;92.904;2023-05-07T04:51:01;6.72;;;4.05;;
42886;SDS011;29032;56.028;92.904;2023-05-07T04:56:03;6.50;;;4.83;;
42886;SDS011;29032;56.028;92.904;2023-05-07T05:01:14;7.93;;;4.77;;
42886;SDS011;29032;56.028;92.904;2023-05-07T05:06:16;7.50;;;4.47;;
42886;SDS011;29032;56.028;92.904;2023-05-07T05:11:19;8.20;;;4.67;;
42886;SDS011;29032;56.028;92.904;2023-05-07T05:21:43;7.77;;;4.80;;
42886;SDS011;29032;56.028;92.904;2023-05-07T05:26:46;7.95;;;4.28;;
42886;SDS011;29032;56.028;92.904;2023-05-07T05:31:50;6.37;;;4.20;;
42886;SDS011;29032;56.028;92.904;2023-05-07T05:36:53;11.43;;;4.80;;
42886;SDS011;29032;56.028;92.904;2023-05-07T05:41:56;6.88;;;3.42;;
42886;SDS011;29032;56.028;92.904;2023-05-07T05:47:00;8.52;;;4.07;;
42886;SDS011;29032;56.028;92.904;2023-05-07T05:52:04;5.53;;;3.77;;
42886;SDS011;29032;56.028;92.904;2023-05-07T06:02:28;8.43;;;3.45;;
42886;SDS011;29032;56.028;92.904;2023-05-07T06:07:30;7.22;;;3.67;;
42886;SDS011;29032;56.028;92.904;2023-05-07T06:12:51;7.72;;;4.65;;
42886;SDS011;29032;56.028;92.904;2023-05-07T06:17:54;8.55;;;3.25;;
42886;SDS011;29032;56.028;92.904;2023-05-07T06:23:15;8.18;;;4.00;;
42886;SDS011;29032;56.028;92.904;2023-05-07T06:28:17;7.30;;;3.22;;
42886;SDS011;29032;56.028;92.904;2023-05-07T06:33:22;5.75;;;3.70;;
42886;SDS011;29032;56.028;92.904;2023-05-07T06:38:24;5.40;;;3.05;;
42886;SDS011;29032;56.028;92.904;2023-05-07T06:49:09;8.43;;;3.47;;
42886;SDS011;29032;56.028;92.904;2023-05-07T06:54:11;4.63;;;2.42;;
42886;SDS011;29032;56.028;92.904;2023-05-07T06:59:15;5.68;;;3.40;;
42886;SDS011;29032;56.028;92.904;2023-05-07T07:04:19;6.63;;;3.00;;
42886;SDS011;29032;56.028;92.904;2023-05-07T07:09:28;5.38;;;2.88;;
42886;SDS011;29032;56.028;92.904;2023-05-07T07:20:11;7.32;;;3.05;;
42886;SDS011;29032;56.028;92.904;2023-05-07T07:30:35;6.35;;;3.53;;
42886;SDS011;29032;56.028;92.904;2023-05-07T07:35:39;5.50;;;2.92;;
42886;SDS011;29032;56.028;92.904;2023-05-07T07:40:42;7.22;;;3.22;;
42886;SDS011;29032;56.028;92.904;2023-05-07T07:45:44;4.18;;;2.65;;
42886;SDS011;29032;56.028;92.904;2023-05-07T07:50:49;3.80;;;2.42;;
42886;SDS011;29032;56.028;92.904;2023-05-07T07:56:10;4.70;;;2.15;;
42886;SDS011;29032;56.028;92.904;2023-05-07T08:01:12;6.32;;;2.75;;
42886;SDS011;29032;56.028;92.904;2023-05-07T08:06:17;4.03;;;2.45;;
42886;SDS011;29032;56.028;92.904;2023-05-07T08:11:20;4.05;;;2.50;;
42886;SDS011;29032;56.028;92.904;2023-05-07T08:16:23;6.30;;;2.72;;
42886;SDS011;29032;56.028;92.904;2023-05-07T08:21:27;5.97;;;2.60;;
42886;SDS011;29032;56.028;92.904;2023-05-07T08:26:29;4.45;;;2.80;;
42886;SDS011;29032;56.028;92.904;2023-05-07T08:31:31;9.25;;;2.90;;
42886;SDS011;29032;56.028;92.904;2023-05-07T08:36:35;5.97;;;2.90;;
42886;SDS011;29032;56.028;92.904;2023-05-07T08:41:38;5.63;;;2.80;;
42886;SDS011;29032;56.028;92.904;2023-05-07T08:46:41;9.77;;;3.08;;
42886;SDS011;29032;56.028;92.904;2023-05-07T08:52:04;7.13;;;2.83;;
42886;SDS011;29032;56.028;92.904;2023-05-07T08:57:07;7.10;;;3.40;;
42886;SDS011;29032;56.028;92.904;2023-05-07T09:02:10;9.02;;;3.35;;
42886;SDS011;29032;56.028;92.904;2023-05-07T09:12:56;10.27;;;3.80;;
42886;SDS011;29032;56.028;92.904;2023-05-07T09:17:59;7.95;;;4.22;;
42886;SDS011;29032;56.028;92.904;2023-05-07T09:23:01;9.88;;;4.18;;
42886;SDS011;29032;56.028;92.904;2023-05-07T09:33:27;9.55;;;4.60;;
42886;SDS011;29032;56.028;92.904;2023-05-07T09:38:29;11.82;;;5.50;;
42886;SDS011;29032;56.028;92.904;2023-05-07T09:48:59;17.50;;;8.07;;
42886;SDS011;29032;56.028;92.904;2023-05-07T09:54:05;16.73;;;9.02;;
42886;SDS011;29032;56.028;92.904;2023-05-07T09:59:12;16.17;;;9.18;;
42886;SDS011;29032;56.028;92.904;2023-05-07T10:04:35;20.20;;;8.60;;
42886;SDS011;29032;56.028;92.904;2023-05-07T10:09:38;17.17;;;9.20;;
42886;SDS011;29032;56.028;92.904;2023-05-07T10:14:48;20.88;;;8.80;;
42886;SDS011;29032;56.028;92.904;2023-05-07T10:20:09;16.52;;;7.68;;
42886;SDS011;29032;56.028;92.904;2023-05-07T10:25:16;17.40;;;6.97;;
42886;SDS011;29032;56.028;92.904;2023-05-07T10:35:50;12.77;;;5.13;;
42886;SDS011;29032;56.028;92.904;2023-05-07T10:41:11;16.48;;;6.20;;
42886;SDS011;29032;56.028;92.904;2023-05-07T10:46:32;12.25;;;5.20;;
42886;SDS011;29032;56.028;92.904;2023-05-07T10:51:44;11.15;;;4.60;;
42886;SDS011;29032;56.028;92.904;2023-05-07T10:56:54;9.25;;;4.32;;
42886;SDS011;29032;56.028;92.904;2023-05-07T11:02:15;12.60;;;5.03;;
42886;SDS011;29032;56.028;92.904;2023-05-07T11:07:28;15.93;;;4.78;;
42886;SDS011;29032;56.028;92.904;2023-05-07T11:18:26;10.82;;;4.50;;
42886;SDS011;29032;56.028;92.904;2023-05-07T11:24:00;9.00;;;4.40;;
42886;SDS011;29032;56.028;92.904;2023-05-07T11:29:21;10.32;;;4.25;;
42886;SDS011;29032;56.028;92.904;2023-05-07T11:34:47;10.45;;;4.43;;
42886;SDS011;29032;56.028;92.904;2023-05-07T11:45:19;7.43;;;4.25;;
42886;SDS011;29032;56.028;92.904;2023-05-07T11:50:26;12.98;;;4.85;;
42886;SDS011;29032;56.028;92.904;2023-05-07T12:00:49;9.60;;;4.30;;
42886;SDS011;29032;56.028;92.904;2023-05-07T12:05:52;8.60;;;4.60;;
42886;SDS011;29032;56.028;92.904;2023-05-07T12:10:54;10.52;;;4.13;;
42886;SDS011;29032;56.028;92.904;2023-05-07T12:16:15;35.22;;;6.20;;
42886;SDS011;29032;56.028;92.904;2023-05-07T12:21:18;17.52;;;5.05;;
42886;SDS011;29032;56.028;92.904;2023-05-07T12:26:21;12.02;;;4.25;;
42886;SDS011;29032;56.028;92.904;2023-05-07T12:31:41;9.85;;;4.82;;
42886;SDS011;29032;56.028;92.904;2023-05-07T12:37:03;13.07;;;4.68;;
42886;SDS011;29032;56.028;92.904;2023-05-07T12:42:05;11.80;;;5.07;;
42886;SDS011;29032;56.028;92.904;2023-05-07T12:47:44;15.45;;;6.53;;
42886;SDS011;29032;56.028;92.904;2023-05-07T12:52:48;15.15;;;5.38;;
42886;SDS011;29032;56.028;92.904;2023-05-07T12:57:50;21.20;;;6.05;;
42886;SDS011;29032;56.028;92.904;2023-05-07T13:02:53;54.05;;;8.05;;
42886;SDS011;29032;56.028;92.904;2023-05-07T13:07:57;48.03;;;9.40;;
42886;SDS011;29032;56.028;92.904;2023-05-07T13:12:59;27.55;;;7.15;;
42886;SDS011;29032;56.028;92.904;2023-05-07T13:18:01;10.07;;;5.47;;
42886;SDS011;29032;56.028;92.904;2023-05-07T13:23:23;17.48;;;6.10;;
42886;SDS011;29032;56.028;92.904;2023-05-07T13:28:25;11.48;;;6.05;;
42886;SDS011;29032;56.028;92.904;2023-05-07T13:33:27;16.83;;;5.97;;
42886;SDS011;29032;56.028;92.904;2023-05-07T13:38:31;13.07;;;6.18;;
42886;SDS011;29032;56.028;92.904;2023-05-07T13:43:33;29.48;;;8.98;;
42886;SDS011;29032;56.028;92.904;2023-05-07T13:48:35;13.85;;;6.65;;
42886;SDS011;29032;56.028;92.904;2023-05-07T13:53:38;15.35;;;6.03;;
42886;SDS011;29032;56.028;92.904;2023-05-07T13:58:40;55.75;;;9.50;;
42886;SDS011;29032;56.028;92.904;2023-05-07T14:03:43;17.48;;;7.25;;
42886;SDS011;29032;56.028;92.904;2023-05-07T14:08:47;22.42;;;6.65;;
42886;SDS011;29032;56.028;92.904;2023-05-07T14:13:49;13.50;;;6.10;;
42886;SDS011;29032;56.028;92.904;2023-05-07T14:24:12;22.05;;;7.63;;
42886;SDS011;29032;56.028;92.904;2023-05-07T14:29:33;18.10;;;9.18;;
42886;SDS011;29032;56.028;92.904;2023-05-07T14:34:35;28.98;;;9.10;;
42886;SDS011;29032;56.028;92.904;2023-05-07T14:39:39;23.95;;;9.43;;
42886;SDS011;29032;56.028;92.904;2023-05-07T14:44:41;31.40;;;10.63;;
42886;SDS011;29032;56.028;92.904;2023-05-07T14:49:43;24.50;;;11.13;;
42886;SDS011;29032;56.028;92.904;2023-05-07T14:54:47;29.27;;;13.87;;
42886;SDS011;29032;56.028;92.904;2023-05-07T14:59:49;29.10;;;13.10;;
42886;SDS011;29032;56.028;92.904;2023-05-07T15:05:09;28.53;;;13.37;;
42886;SDS011;29032;56.028;92.904;2023-05-07T15:10:13;41.10;;;18.37;;
42886;SDS011;29032;56.028;92.904;2023-05-07T15:15:15;35.97;;;18.00;;
42886;SDS011;29032;56.028;92.904;2023-05-07T15:20:17;32.63;;;20.17;;
42886;SDS011;29032;56.028;92.904;2023-05-07T15:25:38;39.70;;;21.93;;
42886;SDS011;29032;56.028;92.904;2023-05-07T15:30:40;35.17;;;19.87;;
42886;SDS011;29032;56.028;92.904;2023-05-07T15:35:43;25.93;;;16.03;;
42886;SDS011;29032;56.028;92.904;2023-05-07T15:40:47;33.50;;;16.73;;
42886;SDS011;29032;56.028;92.904;2023-05-07T15:45:49;29.33;;;19.40;;
42886;SDS011;29032;56.028;92.904;2023-05-07T15:50:51;31.87;;;17.83;;
42886;SDS011;29032;56.028;92.904;2023-05-07T15:56:13;28.20;;;15.50;;
42886;SDS011;29032;56.028;92.904;2023-05-07T16:01:33;25.13;;;14.13;;
42886;SDS011;29032;56.028;92.904;2023-05-07T16:06:53;24.17;;;13.17;;
42886;SDS011;29032;56.028;92.904;2023-05-07T16:11:57;21.13;;;11.13;;
42886;SDS011;29032;56.028;92.904;2023-05-07T16:16:59;16.33;;;10.00;;
42886;SDS011;29032;56.028;92.904;2023-05-07T16:22:19;19.83;;;8.73;;
42886;SDS011;29032;56.028;92.904;2023-05-07T16:27:23;19.20;;;8.40;;
42886;SDS011;29032;56.028;92.904;2023-05-07T16:32:25;13.27;;;8.23;;
42886;SDS011;29032;56.028;92.904;2023-05-07T16:42:48;15.67;;;9.37;;
42886;SDS011;29032;56.028;92.904;2023-05-07T16:53:11;16.63;;;9.83;;
42886;SDS011;29032;56.028;92.904;2023-05-07T16:58:32;19.67;;;9.87;;
42886;SDS011;29032;56.028;92.904;2023-05-07T17:03:53;18.63;;;10.10;;
42886;SDS011;29032;56.028;92.904;2023-05-07T17:08:55;22.03;;;10.87;;
42886;SDS011;29032;56.028;92.904;2023-05-07T17:13:58;19.00;;;10.90;;
42886;SDS011;29032;56.028;92.904;2023-05-07T17:19:01;23.43;;;12.63;;
42886;SDS011;29032;56.028;92.904;2023-05-07T17:24:03;23.90;;;12.20;;
42886;SDS011;29032;56.028;92.904;2023-05-07T17:29:07;23.23;;;13.30;;
42886;SDS011;29032;56.028;92.904;2023-05-07T17:34:46;23.77;;;12.97;;
42886;SDS011;29032;56.028;92.904;2023-05-07T17:45:46;21.67;;;12.73;;
42886;SDS011;29032;56.028;92.904;2023-05-07T17:50:48;20.20;;;12.63;;
42886;SDS011;29032;56.028;92.904;2023-05-07T17:55:51;24.20;;;11.97;;
42886;SDS011;29032;56.028;92.904;2023-05-07T18:01:13;23.23;;;11.97;;
42886;SDS011;29032;56.028;92.904;2023-05-07T18:06:15;20.03;;;11.93;;
42886;SDS011;29032;56.028;92.904;2023-05-07T18:11:17;22.50;;;11.97;;
42886;SDS011;29032;56.028;92.904;2023-05-07T18:16:21;21.00;;;12.33;;
42886;SDS011;29032;56.028;92.904;2023-05-07T18:21:41;21.90;;;12.40;;
42886;SDS011;29032;56.028;92.904;2023-05-07T18:26:43;24.07;;;12.27;;
42886;SDS011;29032;56.028;92.904;2023-05-07T18:37:07;20.90;;;11.90;;
42886;SDS011;29032;56.028;92.904;2023-05-07T18:42:10;18.10;;;11.57;;
42886;SDS011;29032;56.028;92.904;2023-05-07T18:47:14;21.00;;;11.17;;
42886;SDS011;29032;56.028;92.904;2023-05-07T18:52:34;25.60;;;12.17;;
42886;SDS011;29032;56.028;92.904;2023-05-07T18:57:36;19.80;;;12.40;;
42886;SDS011;29032;56.028;92.904;2023-05-07T19:02:58;18.87;;;11.47;;
42886;SDS011;29032;56.028;92.904;2023-05-07T19:08:36;18.63;;;10.63;;
42886;SDS011;29032;56.028;92.904;2023-05-07T19:13:38;22.30;;;11.83;;
42886;SDS011;29032;56.028;92.904;2023-05-07T19:24:20;16.60;;;10.03;;
42886;SDS011;29032;56.028;92.904;2023-05-07T19:29:22;18.27;;;11.00;;
42886;SDS011;29032;56.028;92.904;2023-05-07T19:34:26;18.17;;;10.80;;
42886;SDS011;29032;56.028;92.904;2023-05-07T19:39:28;19.67;;;10.60;;
42886;SDS011;29032;56.028;92.904;2023-05-07T19:44:30;16.17;;;9.17;;
42886;SDS011;29032;56.028;92.904;2023-05-07T19:49:33;15.80;;;9.03;;
42886;SDS011;29032;56.028;92.904;2023-05-07T19:54:54;14.43;;;8.60;;
42886;SDS011;29032;56.028;92.904;2023-05-07T20:00:14;11.83;;;8.53;;
42886;SDS011;29032;56.028;92.904;2023-05-07T20:10:38;17.93;;;9.63;;
42886;SDS011;29032;56.028;92.904;2023-05-07T20:15:41;15.00;;;9.87;;
42886;SDS011;29032;56.028;92.904;2023-05-07T20:20:45;17.33;;;9.87;;
42886;SDS011;29032;56.028;92.904;2023-05-07T20:25:47;18.47;;;9.77;;
42886;SDS011;29032;56.028;92.904;2023-05-07T20:30:49;19.50;;;9.03;;
42886;SDS011;29032;56.028;92.904;2023-05-07T20:36:11;18.53;;;10.03;;
42886;SDS011;29032;56.028;92.904;2023-05-07T20:41:13;16.80;;;8.13;;
42886;SDS011;29032;56.028;92.904;2023-05-07T20:46:15;14.97;;;8.77;;
42886;SDS011;29032;56.028;92.904;2023-05-07T20:51:18;14.37;;;8.80;;
42886;SDS011;29032;56.028;92.904;2023-05-07T20:56:20;17.80;;;8.90;;
42886;SDS011;29032;56.028;92.904;2023-05-07T21:01:22;20.20;;;10.37;;
42886;SDS011;29032;56.028;92.904;2023-05-07T21:06:26;15.40;;;8.17;;
42886;SDS011;29032;56.028;92.904;2023-05-07T21:11:28;16.90;;;8.00;;
42886;SDS011;29032;56.028;92.904;2023-05-07T21:16:30;11.70;;;7.13;;
42886;SDS011;29032;56.028;92.904;2023-05-07T21:21:34;15.10;;;7.67;;
42886;SDS011;29032;56.028;92.904;2023-05-07T21:31:56;15.73;;;8.20;;
42886;SDS011;29032;56.028;92.904;2023-05-07T21:36:59;11.73;;;7.70;;
42886;SDS011;29032;56.028;92.904;2023-05-07T21:42:02;12.27;;;7.20;;
42886;SDS011;29032;56.028;92.904;2023-05-07T21:47:04;15.60;;;7.87;;
42886;SDS011;29032;56.028;92.904;2023-05-07T21:52:11;10.43;;;7.43;;
42886;SDS011;29032;56.028;92.904;2023-05-07T21:57:13;14.87;;;8.13;;
42886;SDS011;29032;56.028;92.904;2023-05-07T22:02:15;13.03;;;7.60;;
42886;SDS011;29032;56.028;92.904;2023-05-07T22:07:19;11.73;;;7.80;;
42886;SDS011;29032;56.028;92.904;2023-05-07T22:12:21;15.17;;;7.80;;
42886;SDS011;29032;56.028;92.904;2023-05-07T22:17:23;19.23;;;9.20;;
42886;SDS011;29032;56.028;92.904;2023-05-07T22:22:27;15.03;;;7.60;;
42886;SDS011;29032;56.028;92.904;2023-05-07T22:27:29;16.23;;;8.50;;
42886;SDS011;29032;56.028;92.904;2023-05-07T22:32:31;17.37;;;8.47;;
42886;SDS011;29032;56.028;92.904;2023-05-07T22:37:34;19.10;;;8.10;;
42886;SDS011;29032;56.028;92.904;2023-05-07T22:42:55;10.83;;;7.03;;
42886;SDS011;29032;56.028;92.904;2023-05-07T22:47:57;15.77;;;8.70;;
42886;SDS011;29032;56.028;92.904;2023-05-07T22:53:00;13.67;;;8.70;;
42886;SDS011;29032;56.028;92.904;2023-05-07T23:03:23;17.20;;;10.37;;
42886;SDS011;29032;56.028;92.904;2023-05-07T23:08:26;16.77;;;10.00;;
42886;SDS011;29032;56.028;92.904;2023-05-07T23:13:28;17.07;;;10.37;;
42886;SDS011;29032;56.028;92.904;2023-05-07T23:18:30;17.80;;;10.47;;
42886;SDS011;29032;56.028;92.904;2023-05-07T23:23:34;21.67;;;10.87;;
42886;SDS011;29032;56.028;92.904;2023-05-07T23:39:36;18.80;;;10.77;;
42886;SDS011;29032;56.028;92.904;2023-05-07T23:44:39;20.63;;;9.83;;
42886;SDS011;29032;56.028;92.904;2023-05-07T23:49:40;22.03;;;9.77;;
42886;SDS011;29032;56.028;92.904;2023-05-07T23:54:44;16.40;;;9.40;;
42886;SDS011;29032;56.028;92.904;2023-05-07T23:59:46;21.10;;;9.33;;
